createdAt,value
2023-02-23T00:01:54.344Z,82.90
2023-02-23T00:04:23.555Z,82.60
2023-02-23T00:06:54.291Z,82.67
2023-02-23T00:09:25.714Z,82.69
2023-02-23T00:11:56.540Z,82.50
2023-02-23T00:14:28.794Z,82.35
2023-02-23T00:17:00.785Z,82.58
2023-02-23T00:19:27.633Z,82.24
2023-02-23T00:21:54.386Z,82.33
2023-02-23T00:24:21.589Z,82.85
2023-02-23T00:26:51.832Z,82.25
2023-02-23T00:29:21.213Z,82.25
2023-02-23T00:31:51.479Z,82.68
2023-02-23T00:34:21.866Z,82.51
2023-02-23T00:36:55.299Z,82.64
2023-02-23T00:39:29.520Z,82.35
2023-02-23T00:42:03.318Z,82.18
2023-02-23T00:44:32.697Z,82.82
2023-02-23T00:47:00.467Z,82.64
2023-02-23T00:49:27.520Z,82.70
2023-02-23T00:51:54.767Z,82.72
2023-02-23T00:54:22.304Z,82.57
2023-02-23T00:56:51.594Z,83.41
2023-02-23T00:59:19.372Z,83.24
2023-02-23T01:01:46.956Z,83.75
2023-02-23T01:04:14.730Z,83.91
2023-02-23T01:06:42.633Z,84.14
2023-02-23T01:09:14.760Z,83.92
2023-02-23T01:11:44.874Z,83.96
2023-02-23T01:14:11.588Z,83.48
2023-02-23T01:16:41.007Z,83.68
2023-02-23T01:19:07.912Z,84.08
2023-02-23T01:21:42.061Z,83.91
2023-02-23T01:24:12.367Z,83.97
2023-02-23T01:26:43.258Z,84.39
2023-02-23T01:29:16.354Z,85.01
2023-02-23T01:31:46.458Z,85.32
2023-02-23T01:34:18.893Z,85.09
2023-02-23T01:36:45.750Z,85.59
2023-02-23T01:39:16.041Z,85.41
2023-02-23T01:41:43.468Z,85.96
2023-02-23T01:44:20.235Z,85.72
2023-02-23T01:46:47.551Z,86.01
2023-02-23T01:49:29.690Z,86.18
2023-02-23T01:52:11.592Z,85.81
2023-02-23T01:54:53.805Z,85.69
2023-02-23T01:57:24.841Z,85.85
2023-02-23T01:59:53.950Z,86.18
2023-02-23T02:02:32.798Z,85.81
2023-02-23T02:05:00.688Z,85.99
2023-02-23T02:07:30.927Z,85.74
2023-02-23T02:10:11.758Z,85.96
2023-02-23T02:12:44.603Z,86.06
2023-02-23T02:15:18.828Z,86.17
2023-02-23T02:18:09.389Z,86.28
2023-02-23T02:21:11.914Z,86.86
2023-02-23T02:24:00.836Z,87.08
2023-02-23T02:27:14.662Z,87.13
2023-02-23T02:30:13.504Z,87.00
2023-02-23T02:33:06.318Z,86.63
2023-02-23T02:36:03.953Z,86.74
2023-02-23T02:38:54.941Z,87.11
2023-02-23T02:41:38.099Z,87.56
2023-02-23T02:44:15.554Z,86.90
2023-02-23T02:46:51.494Z,87.79
2023-02-23T02:49:30.697Z,87.85
2023-02-23T02:52:14.676Z,87.81
2023-02-23T02:54:48.088Z,88.11
2023-02-23T02:57:16.088Z,88.26
2023-02-23T03:00:07.367Z,88.30
2023-02-23T03:02:56.005Z,88.64
2023-02-23T03:06:06.954Z,88.83
2023-02-23T03:09:03.660Z,89.17
2023-02-23T03:11:59.343Z,88.57
2023-02-23T03:15:22.658Z,89.50
2023-02-23T03:18:31.688Z,89.04
2023-02-23T03:21:27.064Z,89.33
2023-02-23T03:24:29.734Z,88.66
2023-02-23T03:27:31.690Z,88.93
2023-02-23T03:30:25.256Z,89.28
2023-02-23T03:33:19.106Z,89.08
2023-02-23T03:36:17.725Z,89.11
2023-02-23T03:39:19.512Z,89.35
2023-02-23T03:42:09.059Z,88.75
2023-02-23T03:45:01.542Z,88.52
2023-02-23T03:47:52.534Z,88.37
2023-02-23T03:50:53.870Z,88.29
2023-02-23T03:53:50.213Z,88.30
2023-02-23T03:56:39.779Z,88.08
2023-02-23T03:59:26.642Z,88.36
2023-02-23T04:02:14.965Z,87.87
2023-02-23T04:05:04.032Z,87.92
2023-02-23T04:07:50.650Z,88.12
2023-02-23T04:10:35.870Z,88.25
2023-02-23T04:13:17.008Z,88.08
2023-02-23T04:15:57.245Z,88.17
2023-02-23T04:18:27.620Z,88.03
2023-02-23T04:20:56.073Z,88.11
2023-02-23T04:23:24.171Z,88.00
2023-02-23T04:25:52.385Z,88.08
2023-02-23T04:28:21.191Z,88.06
2023-02-23T04:30:47.960Z,88.02
2023-02-23T04:33:14.802Z,87.87
2023-02-23T04:35:41.999Z,87.99
2023-02-23T04:38:10.339Z,87.97
2023-02-23T04:40:37.308Z,87.90
2023-02-23T04:43:04.157Z,87.85
2023-02-23T04:45:30.837Z,87.49
2023-02-23T04:47:58.704Z,87.27
2023-02-23T04:50:27.359Z,87.83
2023-02-23T04:52:56.555Z,87.66
2023-02-23T04:55:26.049Z,87.91
2023-02-23T04:57:58.201Z,87.90
2023-02-23T05:00:25.534Z,87.78
2023-02-23T05:02:53.958Z,87.82
2023-02-23T05:05:23.334Z,87.77
2023-02-23T05:07:55.552Z,87.84
2023-02-23T05:10:23.224Z,87.65
2023-02-23T05:12:51.613Z,88.03
2023-02-23T05:15:19.895Z,87.71
2023-02-23T05:17:48.188Z,87.94
2023-02-23T05:20:18.639Z,87.51
2023-02-23T05:22:45.501Z,87.75
2023-02-23T05:25:19.874Z,87.93
2023-02-23T05:27:48.778Z,87.60
2023-02-23T05:30:15.635Z,88.21
2023-02-23T05:32:44.619Z,87.93
2023-02-23T05:35:13.212Z,88.08
2023-02-23T05:37:41.345Z,87.94
2023-02-23T05:40:12.083Z,88.14
2023-02-23T05:42:39.086Z,87.73
2023-02-23T05:45:07.663Z,88.32
2023-02-23T05:47:39.978Z,94.27
2023-02-23T05:50:10.199Z,91.74
2023-02-23T05:52:43.926Z,87.70
2023-02-23T05:55:11.819Z,85.38
2023-02-23T05:57:39.949Z,83.16
2023-02-23T06:00:08.218Z,81.53
2023-02-23T06:02:36.639Z,80.52
2023-02-23T06:05:04.349Z,79.75
2023-02-23T06:07:33.249Z,76.53
2023-02-23T06:10:07.185Z,76.41
2023-02-23T06:12:36.450Z,77.33
2023-02-23T06:15:06.445Z,78.19
2023-02-23T06:17:33.886Z,79.34
2023-02-23T06:20:02.103Z,79.58
2023-02-23T06:22:31.074Z,79.82
2023-02-23T06:24:58.765Z,80.23
2023-02-23T06:27:26.673Z,80.72
2023-02-23T06:29:53.771Z,81.55
2023-02-23T06:32:21.798Z,82.10
2023-02-23T06:34:50.568Z,82.46
2023-02-23T06:37:18.018Z,82.20
2023-02-23T06:39:45.259Z,83.21
2023-02-23T06:42:11.893Z,82.92
2023-02-23T06:44:40.117Z,83.11
2023-02-23T06:47:08.970Z,83.32
2023-02-23T06:49:35.716Z,84.09
2023-02-23T06:52:02.454Z,84.25
2023-02-23T06:54:31.351Z,84.06
2023-02-23T06:56:59.446Z,84.44
2023-02-23T06:59:27.666Z,85.72
2023-02-23T07:01:58.464Z,86.30
2023-02-23T07:04:34.969Z,85.72
2023-02-23T07:07:02.061Z,85.45
2023-02-23T07:09:30.742Z,85.26
2023-02-23T07:11:57.777Z,84.94
2023-02-23T07:14:26.893Z,85.71
2023-02-23T07:16:54.902Z,86.09
2023-02-23T07:19:21.981Z,85.45
2023-02-23T07:21:51.967Z,85.29
2023-02-23T07:24:18.824Z,85.85
2023-02-23T07:26:47.850Z,86.69
2023-02-23T07:29:16.131Z,86.30
2023-02-23T07:31:43.241Z,85.99
2023-02-23T07:34:10.556Z,87.09
2023-02-23T07:36:40.041Z,87.69
2023-02-23T07:39:08.914Z,88.04
2023-02-23T07:41:37.871Z,88.30
2023-02-23T07:44:08.151Z,87.87
2023-02-23T07:46:35.139Z,88.08
2023-02-23T07:49:03.035Z,87.91
2023-02-23T07:51:29.821Z,87.67
2023-02-23T07:53:57.375Z,87.07
2023-02-23T07:56:24.627Z,86.82
2023-02-23T07:58:51.862Z,87.00
2023-02-23T08:01:19.468Z,86.56
2023-02-23T08:03:51.337Z,86.01
2023-02-23T08:06:19.320Z,85.49
2023-02-23T08:08:49.092Z,85.53
2023-02-23T08:11:17.527Z,85.18
2023-02-23T08:13:44.587Z,85.84
2023-02-23T08:16:13.346Z,85.50
2023-02-23T08:18:40.183Z,85.38
2023-02-23T08:21:08.315Z,84.14
2023-02-23T08:23:42.698Z,82.67
2023-02-23T08:26:09.801Z,82.11
2023-02-23T08:28:37.717Z,81.82
2023-02-23T08:31:10.565Z,81.81
2023-02-23T08:33:38.812Z,81.53
2023-02-23T08:36:08.595Z,81.73
2023-02-23T08:38:39.734Z,81.60
2023-02-23T08:41:09.379Z,81.67
2023-02-23T08:43:37.047Z,80.94
2023-02-23T08:46:04.625Z,80.21
2023-02-23T08:48:31.693Z,79.24
2023-02-23T08:51:00.846Z,79.27
2023-02-23T08:53:31.011Z,77.80
2023-02-23T08:56:03.220Z,78.14
2023-02-23T08:58:32.230Z,77.95
2023-02-23T09:01:01.427Z,77.92
2023-02-23T09:03:30.849Z,78.05
2023-02-23T09:06:04.888Z,78.14
2023-02-23T09:08:33.001Z,77.75
2023-02-23T09:11:00.005Z,77.40
2023-02-23T09:13:28.470Z,76.71
2023-02-23T09:15:57.968Z,76.45
2023-02-23T09:18:31.161Z,75.49
2023-02-23T09:20:59.021Z,76.17
2023-02-23T09:23:29.692Z,75.13
2023-02-23T09:25:56.954Z,74.99
2023-02-23T09:28:23.584Z,74.46
2023-02-23T09:30:51.215Z,75.01
2023-02-23T09:33:18.991Z,75.08
2023-02-23T09:35:48.310Z,74.83
2023-02-23T09:38:16.001Z,74.22
2023-02-23T09:40:56.450Z,74.75
2023-02-23T09:43:32.446Z,74.11
2023-02-23T09:46:22.291Z,73.94
2023-02-23T09:48:49.851Z,73.95
2023-02-23T09:51:21.110Z,73.84
2023-02-23T09:54:00.935Z,73.13
2023-02-23T09:56:39.010Z,72.92
2023-02-23T09:59:10.159Z,73.17
2023-02-23T10:02:17.543Z,73.13
2023-02-23T10:04:57.729Z,72.80
2023-02-23T10:07:34.848Z,72.49
2023-02-23T10:10:10.901Z,72.76
2023-02-23T10:13:09.707Z,72.80
2023-02-23T10:15:49.909Z,72.77
2023-02-23T10:18:22.129Z,72.28
2023-02-23T10:21:38.266Z,72.16
2023-02-23T10:24:23.578Z,72.12
2023-02-23T10:27:21.794Z,72.48
2023-02-23T10:29:51.580Z,72.24
2023-02-23T10:33:05.169Z,72.24
2023-02-23T10:35:32.440Z,72.55
2023-02-23T10:38:02.256Z,71.52
2023-02-23T10:40:33.401Z,71.15
2023-02-23T10:43:01.871Z,70.93
2023-02-23T10:45:30.899Z,71.20
2023-02-23T10:48:08.853Z,70.74
2023-02-23T10:50:41.300Z,70.02
2023-02-23T10:53:26.852Z,70.19
2023-02-23T10:56:13.819Z,69.18
2023-02-23T10:58:46.819Z,68.44
2023-02-23T11:01:17.334Z,68.41
2023-02-23T11:03:57.566Z,68.61
2023-02-23T11:06:31.417Z,68.57
2023-02-23T11:09:01.506Z,68.26
2023-02-23T11:11:29.705Z,68.14
2023-02-23T11:14:02.213Z,67.76
2023-02-23T11:16:32.497Z,67.93
2023-02-23T11:19:02.278Z,67.46
2023-02-23T11:21:35.692Z,67.77
2023-02-23T11:24:20.379Z,66.90
2023-02-23T11:26:52.818Z,66.82
2023-02-23T11:32:45.569Z,67.01
2023-02-23T11:35:21.264Z,66.14
2023-02-23T11:37:52.206Z,66.81
2023-02-23T11:40:32.156Z,67.27
2023-02-23T11:43:15.087Z,67.76
2023-02-23T11:45:54.267Z,67.03
2023-02-23T11:48:44.105Z,66.72
2023-02-23T11:51:22.392Z,67.03
2023-02-23T11:53:55.700Z,66.38
2023-02-23T11:56:25.974Z,66.06
2023-02-23T11:58:58.808Z,66.12
2023-02-23T12:01:44.541Z,64.56
2023-02-23T12:04:37.787Z,65.34
2023-02-23T12:07:34.643Z,65.78
2023-02-23T12:10:26.606Z,65.39
2023-02-23T12:13:02.092Z,64.44
2023-02-23T12:15:39.056Z,64.67
2023-02-23T12:18:19.108Z,64.75
2023-02-23T12:20:50.836Z,64.49
2023-02-23T12:23:26.417Z,64.39
2023-02-23T12:26:04.987Z,64.38
2023-02-23T12:28:53.026Z,64.61
2023-02-23T12:31:47.624Z,64.23
2023-02-23T12:34:38.798Z,63.78
2023-02-23T12:37:29.857Z,64.22
2023-02-23T12:40:22.270Z,63.81
2023-02-23T12:43:04.690Z,63.51
2023-02-23T13:00:00.930Z,63.81
2023-02-23T13:04:47.283Z,64.15
2023-02-23T13:06:30.673Z,63.44
2023-02-23T13:09:04.742Z,63.56
2023-02-23T13:11:53.912Z,63.89
2023-02-23T13:14:34.739Z,62.72
2023-02-23T13:17:17.913Z,63.25
2023-02-23T13:19:59.199Z,63.53
2023-02-23T13:22:38.043Z,63.60
2023-02-23T13:25:49.783Z,63.78
2023-02-23T13:28:28.527Z,63.17
2023-02-23T13:30:56.675Z,63.12
2023-02-23T13:33:43.552Z,62.73
2023-02-23T13:36:13.200Z,62.94
2023-02-23T13:39:18.686Z,63.39
2023-02-23T13:42:10.160Z,63.22
2023-02-23T13:44:45.085Z,62.35
2023-02-23T13:47:35.490Z,63.76
2023-02-23T13:50:18.512Z,64.69
2023-02-23T13:52:48.442Z,64.60
2023-02-23T13:55:50.016Z,64.38
2023-02-23T13:58:23.976Z,63.41
2023-02-23T14:01:03.365Z,63.38
2023-02-23T14:03:44.327Z,63.05
2023-02-23T14:06:15.028Z,62.88
2023-02-23T14:08:45.373Z,62.60
2023-02-23T14:11:30.211Z,62.57
2023-02-23T14:14:05.270Z,62.41
2023-02-23T14:16:32.106Z,62.76
2023-02-23T14:19:06.937Z,62.38
2023-02-23T14:21:42.815Z,63.25
2023-02-23T14:24:24.151Z,63.96
2023-02-23T14:27:34.233Z,64.10
2023-02-23T14:30:19.721Z,63.55
2023-02-23T14:32:50.247Z,61.99
2023-02-23T14:35:32.423Z,62.27
2023-02-23T14:38:09.416Z,62.23
2023-02-23T14:40:42.257Z,61.99
2023-02-23T14:43:43.447Z,62.81
2023-02-23T14:46:22.887Z,62.32
2023-02-23T14:48:59.816Z,61.45
2023-02-23T14:51:42.519Z,61.45
2023-02-23T14:54:36.215Z,61.63
2023-02-23T14:57:12.065Z,61.36
2023-02-23T14:59:41.157Z,61.24
2023-02-23T15:02:20.587Z,61.59
2023-02-23T15:04:47.861Z,61.82
2023-02-23T15:07:24.108Z,62.47
2023-02-23T15:09:55.654Z,62.60
2023-02-23T15:12:29.337Z,62.49
2023-02-23T15:15:01.880Z,62.84
2023-02-23T15:17:32.094Z,62.37
2023-02-23T15:20:15.821Z,62.71
2023-02-23T15:22:50.165Z,62.68
2023-02-23T15:25:21.524Z,63.03
2023-02-23T15:27:48.978Z,63.59
2023-02-23T15:30:27.169Z,63.29
2023-02-23T15:33:05.833Z,63.55
2023-02-23T15:35:47.728Z,63.85
2023-02-23T15:38:41.765Z,63.84
2023-02-23T15:41:20.254Z,63.93
2023-02-23T15:43:47.054Z,63.88
2023-02-23T15:46:24.824Z,63.82
2023-02-23T15:48:54.131Z,63.92
2023-02-23T15:51:36.339Z,63.98
2023-02-23T15:54:14.157Z,64.82
2023-02-23T15:56:41.124Z,65.21
2023-02-23T15:59:25.721Z,65.92
2023-02-23T16:01:54.734Z,66.95
2023-02-23T16:04:28.863Z,67.46
2023-02-23T16:07:09.018Z,68.34
2023-02-23T16:09:38.999Z,69.42
2023-02-23T16:12:13.416Z,70.02
2023-02-23T16:14:59.409Z,69.58
2023-02-23T16:17:46.860Z,69.76
2023-02-23T16:20:42.422Z,71.03
2023-02-23T16:23:34.092Z,71.17
2023-02-23T16:26:31.787Z,71.69
2023-02-23T16:29:02.974Z,71.99
2023-02-23T16:31:43.815Z,72.21
2023-02-23T16:34:35.182Z,72.74
2023-02-23T16:37:15.857Z,72.64
2023-02-23T16:39:42.757Z,72.48
2023-02-23T16:42:20.668Z,72.41
2023-02-23T16:44:49.283Z,72.72
2023-02-23T16:47:31.926Z,72.86
2023-02-23T16:50:04.878Z,72.93
2023-02-23T16:52:37.305Z,72.55
2023-02-23T16:55:05.011Z,73.09
2023-02-23T16:57:39.271Z,73.17
2023-02-23T17:00:14.773Z,72.95
2023-02-23T17:02:49.843Z,72.63
2023-02-23T17:05:21.990Z,72.66
2023-02-23T17:07:49.625Z,72.47
2023-02-23T17:10:26.614Z,72.62
2023-02-23T17:13:05.176Z,72.23
2023-02-23T17:15:42.354Z,72.75
2023-02-23T17:18:09.141Z,72.51
2023-02-23T17:20:36.116Z,72.69
2023-02-23T17:23:03.629Z,72.68
2023-02-23T17:25:30.631Z,72.51
2023-02-23T17:27:59.189Z,72.45
2023-02-23T17:30:27.070Z,72.10
2023-02-23T17:33:07.122Z,73.27
2023-02-23T17:39:28.371Z,72.38
2023-02-23T17:42:02.430Z,72.21
2023-02-23T17:44:31.811Z,72.52
2023-02-23T17:46:58.467Z,72.43
2023-02-23T17:49:25.969Z,72.40
2023-02-23T17:51:52.477Z,72.33
2023-02-23T17:54:19.102Z,72.77
2023-02-23T17:56:47.110Z,73.40
2023-02-23T17:59:13.713Z,73.19
2023-02-23T18:01:41.442Z,72.84
2023-02-23T18:04:08.446Z,73.46
2023-02-23T18:06:35.169Z,73.39
2023-02-23T18:09:05.988Z,73.41
2023-02-23T18:11:37.705Z,73.04
2023-02-23T18:14:04.716Z,73.00
2023-02-23T18:16:34.918Z,73.24
2023-02-23T18:19:01.521Z,73.46
2023-02-23T18:21:29.638Z,73.38
2023-02-23T18:23:59.530Z,73.07
2023-02-23T18:26:27.069Z,73.07
2023-02-23T18:28:56.290Z,73.04
2023-02-23T18:31:30.614Z,72.75
2023-02-23T18:34:00.432Z,72.47
2023-02-23T18:36:31.291Z,72.76
2023-02-23T18:39:01.262Z,79.66
2023-02-23T18:41:32.859Z,76.17
2023-02-23T18:44:07.986Z,73.67
2023-02-23T18:46:36.327Z,72.48
2023-02-23T18:49:09.369Z,71.39
2023-02-23T18:51:36.443Z,68.02
2023-02-23T18:54:05.494Z,67.88
2023-02-23T18:56:32.387Z,68.54
2023-02-23T18:59:03.726Z,69.53
2023-02-23T19:01:33.479Z,70.68
2023-02-23T19:04:01.789Z,71.59
2023-02-23T19:06:30.648Z,72.64
2023-02-23T19:08:59.466Z,73.12
2023-02-23T19:11:29.231Z,73.40
2023-02-23T19:13:58.297Z,72.99
2023-02-23T19:16:27.977Z,73.62
2023-02-23T19:18:54.767Z,74.06
2023-02-23T19:21:22.855Z,73.99
2023-02-23T19:23:54.394Z,74.21
2023-02-23T19:26:21.398Z,74.38
2023-02-23T19:28:48.731Z,74.17
2023-02-23T19:31:21.308Z,74.27
2023-02-23T19:33:52.543Z,73.99
2023-02-23T19:36:23.526Z,74.10
2023-02-23T19:38:50.252Z,74.62
2023-02-23T19:41:20.391Z,75.33
2023-02-23T19:43:47.851Z,75.59
2023-02-23T19:46:17.182Z,74.04
2023-02-23T19:48:48.887Z,73.65
2023-02-23T19:51:15.601Z,73.47
2023-02-23T19:53:42.129Z,74.78
2023-02-23T19:56:13.425Z,75.07
2023-02-23T19:58:44.812Z,74.49
2023-02-23T20:01:16.798Z,74.71
2023-02-23T20:03:44.894Z,74.56
2023-02-23T20:06:13.520Z,74.80
2023-02-23T20:08:44.817Z,74.80
2023-02-23T20:11:11.909Z,75.22
2023-02-23T20:13:41.613Z,75.67
2023-02-23T20:16:10.836Z,75.44
2023-02-23T20:18:39.877Z,75.37
2023-02-23T20:21:18.284Z,75.78
2023-02-23T20:23:47.898Z,75.75
2023-02-23T20:26:20.771Z,75.90
2023-02-23T20:28:47.682Z,75.89
2023-02-23T20:31:19.616Z,75.87
2023-02-23T20:33:50.256Z,76.22
2023-02-23T20:36:20.530Z,75.70
2023-02-23T20:38:47.333Z,75.55
2023-02-23T20:41:14.117Z,75.18
2023-02-23T20:43:41.235Z,75.42
2023-02-23T20:46:07.827Z,75.29
2023-02-23T20:48:38.075Z,75.90
2023-02-23T20:51:08.679Z,76.36
2023-02-23T20:53:35.365Z,76.38
2023-02-23T20:56:06.291Z,76.37
2023-02-23T20:58:33.041Z,76.36
2023-02-23T21:01:05.779Z,76.50
2023-02-23T21:03:33.986Z,77.05
2023-02-23T21:06:00.932Z,77.13
2023-02-23T21:08:28.799Z,76.94
2023-02-23T21:10:55.961Z,77.07
2023-02-23T21:13:23.170Z,77.67
2023-02-23T21:16:00.991Z,77.47
2023-02-23T21:18:28.662Z,77.17
2023-02-23T21:20:58.923Z,76.92
2023-02-23T21:23:25.732Z,76.88
2023-02-23T21:25:54.175Z,76.61
2023-02-23T21:28:21.475Z,76.04
2023-02-23T21:30:48.221Z,76.48
2023-02-23T21:33:15.181Z,77.06
2023-02-23T21:35:41.965Z,77.10
2023-02-23T21:38:10.441Z,76.89
2023-02-23T21:40:42.078Z,76.57
2023-02-23T21:43:09.168Z,76.40
2023-02-23T21:45:39.885Z,75.71
2023-02-23T21:48:06.756Z,75.73
2023-02-23T21:50:35.534Z,75.85
2023-02-23T21:53:02.366Z,75.57
2023-02-23T21:55:29.155Z,75.61
2023-02-23T21:57:58.495Z,75.06
2023-02-23T22:00:28.259Z,75.40
2023-02-23T22:02:54.902Z,75.01
2023-02-23T22:05:22.793Z,75.84
2023-02-23T22:07:52.422Z,75.52
2023-02-23T22:10:21.977Z,75.19
2023-02-23T22:12:50.525Z,75.00
2023-02-23T22:15:18.164Z,74.59
2023-02-23T22:17:44.965Z,75.04
2023-02-23T22:20:12.174Z,75.46
2023-02-23T22:22:38.932Z,76.32
2023-02-23T22:25:07.343Z,75.84
2023-02-23T22:27:33.916Z,75.20
2023-02-23T22:30:03.091Z,75.25
2023-02-23T22:32:33.464Z,74.95
2023-02-23T22:35:01.434Z,74.73
2023-02-23T22:37:30.135Z,74.89
2023-02-23T22:39:57.975Z,74.92
2023-02-23T22:42:24.829Z,76.13
2023-02-23T22:44:51.661Z,76.60
2023-02-23T22:47:20.917Z,76.68
2023-02-23T22:49:48.047Z,76.08
2023-02-23T22:52:14.858Z,75.92
2023-02-23T22:54:43.964Z,76.16
2023-02-23T22:57:10.606Z,76.38
2023-02-23T22:59:37.717Z,76.57
2023-02-23T23:02:04.639Z,76.58
2023-02-23T23:04:34.671Z,76.83
2023-02-23T23:07:01.483Z,77.90
2023-02-23T23:09:29.088Z,78.84
2023-02-23T23:11:56.728Z,80.03
2023-02-23T23:14:23.780Z,80.66
2023-02-23T23:16:50.758Z,79.39
2023-02-23T23:19:24.361Z,79.68
2023-02-23T23:21:55.263Z,78.82
2023-02-23T23:24:23.833Z,78.98
2023-02-23T23:26:55.890Z,78.50
2023-02-23T23:29:29.430Z,78.79
2023-02-23T23:31:57.411Z,78.40
2023-02-23T23:34:25.282Z,77.95
2023-02-23T23:36:53.336Z,77.33
2023-02-23T23:39:22.982Z,76.32
2023-02-23T23:41:51.567Z,76.33
2023-02-23T23:44:21.374Z,76.46
2023-02-23T23:46:51.033Z,75.56
2023-02-23T23:49:19.878Z,75.18
2023-02-23T23:51:50.288Z,75.46
2023-02-23T23:54:21.504Z,75.35
2023-02-23T23:56:51.999Z,75.84
2023-02-23T23:59:22.170Z,76.31
